createdAt,value
2017-03-04T00:00:00.390Z,27.3
2017-03-04T00:01:02.179Z,27.3
2017-03-04T00:02:00.699Z,27.3
2017-03-04T00:03:00.595Z,27.3
2017-03-04T00:04:00.824Z,27.3
2017-03-04T00:05:02.309Z,27.3
2017-03-04T00:06:00.808Z,27.3
2017-03-04T00:07:00.882Z,27.2
2017-03-04T00:08:02.513Z,27.2
2017-03-04T00:09:02.617Z,27.3
2017-03-04T00:10:01.312Z,27.3
2017-03-04T00:11:02.886Z,27.3
2017-03-04T00:12:02.810Z,27.3
2017-03-04T00:13:03.033Z,27.3
2017-03-04T00:14:01.335Z,27.3
2017-03-04T00:15:03.214Z,27.3
2017-03-04T00:16:03.186Z,27.3
2017-03-04T00:17:03.204Z,27.3
2017-03-04T00:18:01.581Z,27.3
2017-03-04T00:19:01.767Z,27.3
2017-03-04T00:20:03.374Z,27.3
2017-03-04T00:21:01.975Z,27.3
2017-03-04T00:22:03.335Z,27.3
2017-03-04T00:23:01.984Z,27.3
2017-03-04T00:24:03.599Z,27.3
2017-03-04T00:25:02.092Z,27.3
2017-03-04T00:26:01.928Z,27.3
2017-03-04T00:27:03.883Z,27.3
2017-03-04T00:28:03.680Z,27.3
2017-03-04T00:29:02.296Z,27.3
2017-03-04T00:30:02.312Z,27.3
2017-03-04T00:31:02.416Z,27.3
2017-03-04T00:32:04.254Z,27.3
2017-03-04T00:33:02.576Z,27.3
2017-03-04T00:34:02.687Z,27.3
2017-03-04T00:35:02.546Z,27.3
2017-03-04T00:36:02.522Z,27.3
2017-03-04T00:37:02.568Z,27.3
2017-03-04T00:38:02.931Z,27.3
2017-03-04T00:39:02.660Z,27.3
2017-03-04T00:40:04.406Z,27.3
2017-03-04T00:41:02.788Z,27.3
2017-03-04T00:42:02.807Z,27.3
2017-03-04T00:43:02.863Z,27.3
2017-03-04T00:44:03.090Z,27.3
2017-03-04T00:45:04.679Z,27.3
2017-03-04T00:46:03.229Z,27.3
2017-03-04T00:47:04.803Z,27.3
2017-03-04T00:48:04.815Z,27.3
2017-03-04T00:49:04.839Z,27.3
2017-03-04T00:50:03.354Z,27.3
2017-03-04T00:51:04.810Z,27.3
2017-03-04T00:52:03.406Z,27.3
2017-03-04T00:53:03.435Z,27.3
2017-03-04T00:54:03.496Z,27.3
2017-03-04T00:55:03.476Z,27.3
2017-03-04T00:56:03.609Z,27.3
2017-03-04T00:57:03.409Z,27.3
2017-03-04T00:58:05.114Z,27.3
2017-03-04T00:59:05.216Z,27.3
2017-03-04T01:00:03.533Z,27.3
2017-03-04T01:01:03.784Z,27.3
2017-03-04T01:02:05.631Z,27.3
2017-03-04T01:03:03.789Z,27.3
2017-03-04T01:04:03.949Z,27.3
2017-03-04T01:05:04.005Z,27.3
2017-03-04T01:06:05.620Z,27.3
2017-03-04T01:07:05.627Z,27.3
2017-03-04T01:08:04.315Z,27.3
2017-03-04T01:09:05.782Z,27.3
2017-03-04T01:10:04.291Z,27.3
2017-03-04T01:11:05.741Z,27.3
2017-03-04T01:12:04.199Z,27.3
2017-03-04T01:13:05.947Z,27.3
2017-03-04T01:14:04.434Z,27.3
2017-03-04T01:15:06.021Z,27.3
2017-03-04T01:16:05.972Z,27.3
2017-03-04T01:17:06.023Z,27.3
2017-03-04T01:18:06.202Z,27.3
2017-03-04T01:19:04.646Z,27.3
2017-03-04T01:20:06.335Z,27.3
2017-03-04T01:21:06.348Z,27.3
2017-03-04T01:22:06.386Z,27.3
2017-03-04T01:23:06.473Z,27.3
2017-03-04T01:24:04.957Z,27.3
2017-03-04T01:25:06.513Z,27.3
2017-03-04T01:26:05.228Z,27.3
2017-03-04T01:27:06.683Z,27.3
2017-03-04T01:28:04.990Z,27.3
2017-03-04T01:29:05.161Z,27.3
2017-03-04T01:30:05.067Z,27.3
2017-03-04T01:31:06.811Z,27.3
2017-03-04T01:32:07.005Z,27.3
2017-03-04T01:33:06.777Z,27.3
2017-03-04T01:34:05.216Z,27.3
2017-03-04T01:35:05.400Z,27.3
2017-03-04T01:36:06.886Z,27.3
2017-03-04T01:37:05.361Z,27.3
2017-03-04T01:38:07.192Z,27.3
2017-03-04T01:39:07.225Z,27.3
2017-03-04T01:40:05.622Z,27.3
2017-03-04T01:41:07.167Z,27.3
2017-03-04T01:42:07.325Z,27.3
2017-03-04T01:43:05.876Z,27.3
2017-03-04T01:44:07.781Z,27.3
2017-03-04T01:45:07.661Z,27.3
2017-03-04T01:46:07.537Z,27.3
2017-03-04T01:47:07.725Z,27.3
2017-03-04T01:48:06.185Z,27.3
2017-03-04T01:49:06.140Z,27.3
2017-03-04T01:50:06.405Z,27.3
2017-03-04T01:51:07.951Z,27.3
2017-03-04T01:52:06.420Z,27.3
2017-03-04T01:53:06.453Z,27.3
2017-03-04T01:54:06.427Z,27.3
2017-03-04T01:55:08.088Z,27.3
2017-03-04T01:56:08.402Z,27.3
2017-03-04T01:57:06.619Z,27.3
2017-03-04T01:58:06.689Z,27.3
2017-03-04T01:59:08.350Z,27.3
2017-03-04T02:00:08.429Z,27.3
2017-03-04T02:01:06.996Z,27.3
2017-03-04T02:02:07.215Z,27.3
2017-03-04T02:03:06.958Z,27.3
2017-03-04T02:04:07.837Z,27.3
2017-03-04T02:05:07.159Z,27.3
2017-03-04T02:06:08.778Z,27.3
2017-03-04T02:07:07.168Z,27.3
2017-03-04T02:08:07.497Z,27.3
2017-03-04T02:09:07.296Z,27.3
2017-03-04T02:10:07.300Z,27.3
2017-03-04T02:11:09.005Z,27.3
2017-03-04T02:12:09.082Z,27.3
2017-03-04T02:13:09.208Z,27.3
2017-03-04T02:14:09.090Z,27.3
2017-03-04T02:15:07.564Z,27.3
2017-03-04T02:16:09.260Z,27.3
2017-03-04T02:17:07.847Z,27.3
2017-03-04T02:18:07.767Z,27.3
2017-03-04T02:19:09.440Z,27.3
2017-03-04T02:20:08.036Z,27.3
2017-03-04T02:21:08.127Z,27.3
2017-03-04T02:22:07.978Z,27.3
2017-03-04T02:23:08.142Z,27.3
2017-03-04T02:24:09.841Z,27.3
2017-03-04T02:25:08.289Z,27.3
2017-03-04T02:26:09.810Z,27.3
2017-03-04T02:27:09.799Z,27.3
2017-03-04T02:28:09.889Z,27.3
2017-03-04T02:29:08.498Z,27.3
2017-03-04T02:30:08.563Z,27.3
2017-03-04T02:31:08.626Z,27.3
2017-03-04T02:32:10.168Z,27.3
2017-03-04T02:33:08.780Z,27.3
2017-03-04T02:34:08.871Z,27.3
2017-03-04T02:35:10.381Z,27.3
2017-03-04T02:36:08.973Z,27.3
2017-03-04T02:37:08.862Z,27.3
2017-03-04T02:38:10.512Z,27.3
2017-03-04T02:39:10.685Z,27.3
2017-03-04T02:40:10.644Z,27.3
2017-03-04T02:41:10.767Z,27.3
2017-03-04T02:42:10.734Z,27.3
2017-03-04T02:43:10.670Z,27.3
2017-03-04T02:44:10.838Z,27.3
2017-03-04T02:45:09.152Z,27.3
2017-03-04T02:46:09.369Z,27.3
2017-03-04T02:47:09.285Z,27.3
2017-03-04T02:48:10.929Z,27.3
2017-03-04T02:49:11.014Z,27.3
2017-03-04T02:50:09.503Z,27.3
2017-03-04T02:51:09.578Z,27.3
2017-03-04T02:52:09.776Z,27.3
2017-03-04T02:53:09.841Z,27.3
2017-03-04T02:54:09.939Z,27.3
2017-03-04T02:55:09.890Z,27.3
2017-03-04T02:56:11.592Z,27.3
2017-03-04T02:57:11.697Z,27.3
2017-03-04T02:58:11.757Z,27.3
2017-03-04T02:59:10.184Z,27.3
2017-03-04T03:00:10.146Z,27.3
2017-03-04T03:01:10.132Z,27.3
2017-03-04T03:02:10.186Z,27.3
2017-03-04T03:03:11.844Z,27.3
2017-03-04T03:04:12.101Z,27.3
2017-03-04T03:05:12.027Z,27.3
2017-03-04T03:06:10.407Z,27.3
2017-03-04T03:07:10.363Z,27.3
2017-03-04T03:08:12.103Z,27.3
2017-03-04T03:09:10.553Z,27.3
2017-03-04T03:10:10.472Z,27.3
2017-03-04T03:11:12.225Z,27.3
2017-03-04T03:12:12.116Z,27.3
2017-03-04T03:13:12.158Z,27.3
2017-03-04T03:14:12.323Z,27.3
2017-03-04T03:15:10.753Z,27.3
2017-03-04T03:16:10.785Z,27.3
2017-03-04T03:17:12.436Z,27.3
2017-03-04T03:18:11.438Z,27.3
2017-03-04T03:19:10.927Z,27.3
2017-03-04T03:20:10.851Z,27.3
2017-03-04T03:21:12.495Z,27.3
2017-03-04T03:22:12.629Z,27.3
2017-03-04T03:23:11.033Z,27.3
2017-03-04T03:24:10.939Z,27.3
2017-03-04T03:25:12.604Z,27.3
2017-03-04T03:26:11.136Z,27.3
2017-03-04T03:27:12.771Z,27.3
2017-03-04T03:28:11.178Z,27.3
2017-03-04T03:29:12.894Z,27.3
2017-03-04T03:30:12.993Z,27.3
2017-03-04T03:31:11.557Z,27.3
2017-03-04T03:32:12.977Z,27.3
2017-03-04T03:33:11.457Z,27.3
2017-03-04T03:34:11.507Z,27.3
2017-03-04T03:35:13.256Z,27.3
2017-03-04T03:36:13.256Z,27.3
2017-03-04T03:37:11.756Z,27.4
2017-03-04T03:38:11.627Z,27.4
2017-03-04T03:39:11.825Z,27.4
2017-03-04T03:40:11.892Z,27.3
2017-03-04T03:41:13.403Z,27.4
2017-03-04T03:42:11.942Z,27.4
2017-03-04T03:43:11.803Z,27.3
2017-03-04T03:44:11.882Z,27.4
2017-03-04T03:45:12.123Z,27.3
2017-03-04T03:46:12.008Z,27.3
2017-03-04T03:47:13.674Z,27.4
2017-03-04T03:48:12.256Z,27.3
2017-03-04T03:49:13.812Z,27.3
2017-03-04T03:50:13.836Z,27.3
2017-03-04T03:51:13.837Z,27.4
2017-03-04T03:52:12.510Z,27.3
2017-03-04T03:53:12.434Z,27.4
2017-03-04T03:54:14.123Z,27.3
2017-03-04T03:55:12.510Z,27.4
2017-03-04T03:56:14.199Z,27.3
2017-03-04T03:57:12.724Z,27.3
2017-03-04T03:58:14.225Z,27.3
2017-03-04T03:59:14.313Z,27.4
2017-03-04T04:00:12.873Z,27.4
2017-03-04T04:01:12.636Z,27.4
2017-03-04T04:02:12.765Z,27.4
2017-03-04T04:03:14.438Z,27.3
2017-03-04T04:04:12.995Z,27.4
2017-03-04T04:05:14.607Z,27.4
2017-03-04T04:06:14.573Z,27.4
2017-03-04T04:07:12.971Z,27.4
2017-03-04T04:08:13.124Z,27.4
2017-03-04T04:09:13.015Z,27.4
2017-03-04T04:10:14.797Z,27.4
2017-03-04T04:11:13.283Z,27.4
2017-03-04T04:12:13.146Z,27.4
2017-03-04T04:13:14.943Z,27.4
2017-03-04T04:14:13.314Z,27.3
2017-03-04T04:15:14.950Z,27.3
2017-03-04T04:16:13.342Z,27.3
2017-03-04T04:17:13.533Z,27.3
2017-03-04T04:18:13.558Z,27.4
2017-03-04T04:19:15.042Z,27.4
2017-03-04T04:20:13.689Z,27.4
2017-03-04T04:21:15.209Z,27.4
2017-03-04T04:22:15.382Z,27.4
2017-03-04T04:23:13.853Z,27.4
2017-03-04T04:24:13.896Z,27.4
2017-03-04T04:25:15.546Z,27.4
2017-03-04T04:26:15.486Z,27.4
2017-03-04T04:27:15.723Z,27.4
2017-03-04T04:28:14.177Z,27.3
2017-03-04T04:29:14.091Z,27.4
2017-03-04T04:30:14.244Z,27.4
2017-03-04T04:31:14.155Z,27.4
2017-03-04T04:32:15.932Z,27.4
2017-03-04T04:33:14.375Z,27.4
2017-03-04T04:34:14.292Z,27.4
2017-03-04T04:35:16.056Z,27.4
2017-03-04T04:36:14.304Z,27.4
2017-03-04T04:37:14.421Z,27.4
2017-03-04T04:38:14.602Z,27.4
2017-03-04T04:39:14.535Z,27.4
2017-03-04T04:40:16.200Z,27.4
2017-03-04T04:41:16.386Z,27.4
2017-03-04T04:42:16.354Z,27.3
2017-03-04T04:43:16.390Z,27.3
2017-03-04T04:44:16.455Z,27.4
2017-03-04T04:45:15.032Z,27.3
2017-03-04T04:46:14.983Z,27.4
2017-03-04T04:47:16.677Z,27.3
2017-03-04T04:48:15.155Z,27.4
2017-03-04T04:49:16.685Z,27.4
2017-03-04T04:50:16.703Z,27.4
2017-03-04T04:51:16.801Z,27.4
2017-03-04T04:52:16.850Z,27.4
2017-03-04T04:53:17.023Z,27.4
2017-03-04T04:54:15.277Z,27.4
2017-03-04T04:55:15.475Z,27.4
2017-03-04T04:56:15.454Z,27.4
2017-03-04T04:57:15.452Z,27.4
2017-03-04T04:58:17.131Z,27.4
2017-03-04T04:59:15.757Z,27.4
2017-03-04T05:00:17.305Z,27.4
2017-03-04T05:01:15.902Z,27.4
2017-03-04T05:02:17.450Z,27.4
2017-03-04T05:03:15.854Z,27.4
2017-03-04T05:04:15.985Z,27.4
2017-03-04T05:05:15.898Z,27.4
2017-03-04T05:06:17.715Z,27.4
2017-03-04T05:07:22.457Z,27.4
2017-03-04T05:08:17.757Z,27.4
2017-03-04T05:09:16.104Z,27.4
2017-03-04T05:10:17.780Z,27.4
2017-03-04T05:11:16.423Z,27.4
2017-03-04T05:12:16.392Z,27.3
2017-03-04T05:13:16.316Z,27.3
2017-03-04T05:14:16.453Z,27.4
2017-03-04T05:15:16.462Z,27.4
2017-03-04T05:16:18.093Z,27.4
2017-03-04T05:17:16.527Z,27.4
2017-03-04T05:18:18.251Z,27.4
2017-03-04T05:19:18.330Z,27.4
2017-03-04T05:20:18.339Z,27.4
2017-03-04T05:21:16.881Z,27.3
2017-03-04T05:22:16.813Z,27.4
2017-03-04T05:23:16.895Z,27.4
2017-03-04T05:24:17.047Z,27.3
2017-03-04T05:25:17.113Z,27.4
2017-03-04T05:26:17.170Z,27.4
2017-03-04T05:27:18.698Z,27.4
2017-03-04T05:28:17.203Z,27.4
2017-03-04T05:29:18.819Z,27.4
2017-03-04T05:30:18.902Z,27.4
2017-03-04T05:31:19.016Z,27.4
2017-03-04T05:32:17.524Z,27.4
2017-03-04T05:33:17.422Z,27.4
2017-03-04T05:34:17.522Z,27.4
2017-03-04T05:35:19.373Z,27.4
2017-03-04T05:36:19.228Z,27.4
2017-03-04T05:37:19.230Z,27.4
2017-03-04T05:38:19.224Z,27.4
2017-03-04T05:39:19.358Z,27.4
2017-03-04T05:40:17.864Z,27.4
2017-03-04T05:41:17.786Z,27.3
2017-03-04T05:42:19.412Z,27.4
2017-03-04T05:43:17.815Z,27.4
2017-03-04T05:44:19.468Z,27.4
2017-03-04T05:45:19.588Z,27.4
2017-03-04T05:46:19.650Z,27.4
2017-03-04T05:47:18.070Z,27.4
2017-03-04T05:48:19.601Z,27.4
2017-03-04T05:49:19.651Z,27.4
2017-03-04T05:50:19.724Z,27.4
2017-03-04T05:51:18.222Z,27.4
2017-03-04T05:52:18.231Z,27.4
2017-03-04T05:53:18.296Z,27.4
2017-03-04T05:54:18.348Z,27.4
2017-03-04T05:55:19.992Z,27.4
2017-03-04T05:56:19.912Z,27.4
2017-03-04T05:57:20.061Z,27.4
2017-03-04T05:58:18.492Z,27.4
2017-03-04T05:59:20.154Z,27.4
2017-03-04T06:00:18.688Z,27.4
2017-03-04T06:01:18.699Z,27.4
2017-03-04T06:02:20.379Z,27.4
2017-03-04T06:03:20.587Z,27.4
2017-03-04T06:04:20.364Z,27.4
2017-03-04T06:05:19.017Z,27.4
2017-03-04T06:06:20.503Z,27.4
2017-03-04T06:07:19.065Z,27.4
2017-03-04T06:08:19.108Z,27.4
2017-03-04T06:09:19.040Z,27.4
2017-03-04T06:10:20.676Z,27.4
2017-03-04T06:11:19.222Z,27.4
2017-03-04T06:12:19.310Z,27.4
2017-03-04T06:13:20.842Z,27.4
2017-03-04T06:14:19.374Z,27.4
2017-03-04T06:15:19.302Z,27.4
2017-03-04T06:16:20.959Z,27.4
2017-03-04T06:17:19.593Z,27.4
2017-03-04T06:18:21.112Z,27.4
2017-03-04T06:19:19.541Z,27.4
2017-03-04T06:20:21.325Z,27.4
2017-03-04T06:21:19.734Z,27.4
2017-03-04T06:22:19.885Z,27.4
2017-03-04T06:23:19.909Z,27.4
2017-03-04T06:24:21.375Z,27.4
2017-03-04T06:25:19.785Z,27.4
2017-03-04T06:26:19.807Z,27.4
2017-03-04T06:27:21.631Z,27.4
2017-03-04T06:28:19.902Z,27.4
2017-03-04T06:29:21.693Z,27.4
2017-03-04T06:30:21.604Z,27.4
2017-03-04T06:31:20.202Z,27.4
2017-03-04T06:32:20.266Z,27.4
2017-03-04T06:33:20.070Z,27.4
2017-03-04T06:34:21.785Z,27.4
2017-03-04T06:35:20.201Z,27.4
2017-03-04T06:36:21.980Z,27.4
2017-03-04T06:37:20.355Z,27.4
2017-03-04T06:38:20.419Z,27.4
2017-03-04T06:39:22.029Z,27.4
2017-03-04T06:40:22.125Z,27.4
2017-03-04T06:41:22.161Z,27.4
2017-03-04T06:42:20.609Z,27.4
2017-03-04T06:43:20.815Z,27.4
2017-03-04T06:44:22.455Z,27.4
2017-03-04T06:45:20.806Z,27.4
2017-03-04T06:46:20.790Z,27.4
2017-03-04T06:47:22.389Z,27.4
2017-03-04T06:48:20.997Z,27.4
2017-03-04T06:49:22.661Z,27.4
2017-03-04T06:50:20.988Z,27.4
2017-03-04T06:51:21.074Z,27.4
2017-03-04T06:52:22.796Z,27.4
2017-03-04T06:53:22.780Z,27.4
2017-03-04T06:54:22.796Z,27.4
2017-03-04T06:55:22.835Z,27.4
2017-03-04T06:56:21.461Z,27.4
2017-03-04T06:57:22.977Z,27.4
2017-03-04T06:58:21.406Z,27.4
2017-03-04T06:59:23.203Z,27.4
2017-03-04T07:00:23.287Z,27.5
2017-03-04T07:01:23.226Z,27.5
2017-03-04T07:02:23.405Z,27.4
2017-03-04T07:03:23.365Z,27.4
2017-03-04T07:04:23.222Z,27.5
2017-03-04T07:05:21.826Z,27.4
2017-03-04T07:06:21.816Z,27.5
2017-03-04T07:07:23.531Z,27.5
2017-03-04T07:08:22.022Z,27.5
2017-03-04T07:09:23.605Z,27.5
2017-03-04T07:10:23.534Z,27.5
2017-03-04T07:11:23.538Z,27.5
2017-03-04T07:12:23.708Z,27.5
2017-03-04T07:13:22.229Z,27.5
2017-03-04T07:14:22.148Z,27.5
2017-03-04T07:15:23.940Z,27.5
2017-03-04T07:16:22.352Z,27.5
2017-03-04T07:17:22.306Z,27.5
2017-03-04T07:18:24.140Z,27.5
2017-03-04T07:19:22.577Z,27.5
2017-03-04T07:20:22.659Z,27.5
2017-03-04T07:21:22.649Z,27.5
2017-03-04T07:22:22.545Z,27.5
2017-03-04T07:23:24.396Z,27.5
2017-03-04T07:24:22.871Z,27.5
2017-03-04T07:25:22.846Z,27.5
2017-03-04T07:26:24.513Z,27.5
2017-03-04T07:27:22.832Z,27.5
2017-03-04T07:28:24.569Z,27.5
2017-03-04T07:29:24.693Z,27.5
2017-03-04T07:30:24.811Z,27.5
2017-03-04T07:31:24.633Z,27.5
2017-03-04T07:32:24.654Z,27.5
2017-03-04T07:33:23.127Z,27.5
2017-03-04T07:34:23.393Z,27.5
2017-03-04T07:35:24.988Z,27.5
2017-03-04T07:36:25.053Z,27.5
2017-03-04T07:37:24.838Z,27.5
2017-03-04T07:38:24.935Z,27.5
2017-03-04T07:39:23.500Z,27.5
2017-03-04T07:40:23.517Z,27.5
2017-03-04T07:41:25.184Z,27.5
2017-03-04T07:42:25.367Z,27.5
2017-03-04T07:43:23.645Z,27.5
2017-03-04T07:44:25.188Z,27.6
2017-03-04T07:45:23.708Z,27.5
2017-03-04T07:46:23.716Z,27.5
2017-03-04T07:47:23.688Z,27.6
2017-03-04T07:48:25.559Z,27.5
2017-03-04T07:49:25.576Z,27.5
2017-03-04T07:50:25.506Z,27.5
2017-03-04T07:51:25.615Z,27.6
2017-03-04T07:52:25.607Z,27.6
2017-03-04T07:53:25.857Z,27.6
2017-03-04T07:54:25.962Z,27.6
2017-03-04T07:55:24.199Z,27.6
2017-03-04T07:56:25.932Z,27.6
2017-03-04T07:57:24.442Z,27.6
2017-03-04T07:58:26.031Z,27.6
2017-03-04T07:59:26.302Z,27.6
2017-03-04T08:00:24.679Z,27.6
2017-03-04T08:01:24.730Z,27.6
2017-03-04T08:02:26.271Z,27.6
2017-03-04T08:03:24.675Z,27.7
2017-03-04T08:04:26.294Z,27.7
2017-03-04T08:05:26.579Z,27.7
2017-03-04T08:06:26.307Z,27.7
2017-03-04T08:07:24.898Z,27.7
2017-03-04T08:08:25.001Z,27.7
2017-03-04T08:09:26.536Z,27.7
2017-03-04T08:10:26.698Z,27.7
2017-03-04T08:11:25.447Z,27.8
2017-03-04T08:12:26.696Z,27.8
2017-03-04T08:13:26.857Z,27.7
2017-03-04T08:14:26.848Z,27.8
2017-03-04T08:15:25.464Z,27.8
2017-03-04T08:16:25.540Z,27.8
2017-03-04T08:17:25.581Z,27.9
2017-03-04T08:18:25.563Z,27.8
2017-03-04T08:19:27.182Z,27.9
2017-03-04T08:20:27.403Z,27.9
2017-03-04T08:21:27.396Z,27.9
2017-03-04T08:22:28.859Z,27.9
2017-03-04T08:23:26.435Z,27.9
2017-03-04T08:24:27.524Z,27.9
2017-03-04T08:25:25.979Z,27.9
2017-03-04T08:26:27.652Z,27.9
2017-03-04T08:27:27.867Z,27.9
2017-03-04T08:28:28.079Z,27.9
2017-03-04T08:29:26.204Z,27.9
2017-03-04T08:30:27.909Z,27.9
2017-03-04T08:31:28.028Z,28
2017-03-04T08:32:27.990Z,28
2017-03-04T08:33:26.330Z,28
2017-03-04T08:34:28.135Z,28
2017-03-04T08:35:28.546Z,28
2017-03-04T08:36:26.424Z,28
2017-03-04T08:37:26.630Z,28
2017-03-04T08:38:26.558Z,28.1
2017-03-04T08:39:26.760Z,28.1
2017-03-04T08:40:28.335Z,28.1
2017-03-04T08:41:26.815Z,28.1
2017-03-04T08:42:26.758Z,28.1
2017-03-04T08:43:26.873Z,28.1
2017-03-04T08:44:26.884Z,28.1
2017-03-04T08:45:26.966Z,28.2
2017-03-04T08:46:28.638Z,28.3
2017-03-04T08:47:27.059Z,28.3
2017-03-04T08:48:27.084Z,28.3
2017-03-04T08:49:27.114Z,28.3
2017-03-04T08:50:27.194Z,28.4
2017-03-04T08:51:27.110Z,28.4
2017-03-04T08:52:28.950Z,28.5
2017-03-04T08:53:27.366Z,28.5
2017-03-04T08:54:27.308Z,28.5
2017-03-04T08:55:28.944Z,28.6
2017-03-04T08:56:27.495Z,28.6
2017-03-04T08:57:27.508Z,28.6
2017-03-04T08:58:29.225Z,28.7
2017-03-04T08:59:29.317Z,28.6
2017-03-04T09:00:27.779Z,28.7
2017-03-04T09:01:29.275Z,28.6
2017-03-04T09:02:27.931Z,28.6
2017-03-04T09:03:29.294Z,28.6
2017-03-04T09:04:29.421Z,28.6
2017-03-04T09:05:27.965Z,28.6
2017-03-04T09:06:29.589Z,28.6
2017-03-04T09:07:29.521Z,28.7
2017-03-04T09:08:27.915Z,28.6
2017-03-04T09:09:28.139Z,28.6
2017-03-04T09:10:29.651Z,28.6
2017-03-04T09:11:29.673Z,28.6
2017-03-04T09:12:28.097Z,28.6
2017-03-04T09:13:28.172Z,28.6
2017-03-04T09:14:29.815Z,28.6
2017-03-04T09:15:28.253Z,28.6
2017-03-04T09:16:28.445Z,28.6
2017-03-04T09:17:28.484Z,28.6
2017-03-04T09:18:30.758Z,28.6
2017-03-04T09:19:30.860Z,28.6
2017-03-04T09:20:28.559Z,28.5
2017-03-04T09:21:28.746Z,28.5
2017-03-04T09:22:28.783Z,28.5
2017-03-04T09:23:30.495Z,28.5
2017-03-04T09:24:28.784Z,28.5
2017-03-04T09:25:30.509Z,28.5
2017-03-04T09:26:29.066Z,28.5
2017-03-04T09:27:30.565Z,28.5
2017-03-04T09:28:29.055Z,28.5
2017-03-04T09:29:30.842Z,28.6
2017-03-04T09:30:30.774Z,28.6
2017-03-04T09:31:30.779Z,28.6
2017-03-04T09:32:30.851Z,28.7
2017-03-04T09:33:29.418Z,28.7
2017-03-04T09:34:29.296Z,28.7
2017-03-04T09:35:31.081Z,28.7
2017-03-04T09:36:31.034Z,28.8
2017-03-04T09:37:31.164Z,28.8
2017-03-04T09:38:31.175Z,28.9
2017-03-04T09:39:29.642Z,28.9
2017-03-04T09:40:31.232Z,28.8
2017-03-04T09:41:29.810Z,28.9
2017-03-04T09:42:29.941Z,28.9
2017-03-04T09:43:31.433Z,28.9
2017-03-04T09:44:30.036Z,28.9
2017-03-04T09:45:30.006Z,28.9
2017-03-04T09:46:29.930Z,28.9
2017-03-04T09:47:30.106Z,28.9
2017-03-04T09:48:31.635Z,28.9
2017-03-04T09:49:31.822Z,28.9
2017-03-04T09:50:31.837Z,29
2017-03-04T09:51:31.849Z,29
2017-03-04T09:52:30.218Z,29
2017-03-04T09:53:30.354Z,29
2017-03-04T09:54:31.933Z,29
2017-03-04T09:55:30.253Z,29.1
2017-03-04T09:56:30.472Z,29.1
2017-03-04T09:57:30.543Z,29.1
2017-03-04T09:58:32.046Z,29.1
2017-03-04T09:59:30.655Z,29.1
2017-03-04T10:00:30.564Z,29.1
2017-03-04T10:01:30.548Z,29.2
2017-03-04T10:02:30.700Z,29.2
2017-03-04T10:03:30.685Z,29.2
2017-03-04T10:04:32.420Z,29.3
2017-03-04T10:05:32.430Z,29.3
2017-03-04T10:06:32.512Z,29.3
2017-03-04T10:07:31.060Z,29.3
2017-03-04T10:08:31.112Z,29.3
2017-03-04T10:09:32.609Z,29.3
2017-03-04T10:10:31.215Z,29.3
2017-03-04T10:11:32.899Z,29.3
2017-03-04T10:12:32.972Z,29.4
2017-03-04T10:13:32.893Z,29.4
2017-03-04T10:14:31.341Z,29.3
2017-03-04T10:15:33.321Z,29.4
2017-03-04T10:16:33.196Z,29.4
2017-03-04T10:17:33.164Z,29.4
2017-03-04T10:18:33.140Z,29.4
2017-03-04T10:19:33.181Z,29.3
2017-03-04T10:20:31.789Z,29.4
2017-03-04T10:21:31.934Z,29.4
2017-03-04T10:22:33.402Z,29.4
2017-03-04T10:23:31.813Z,29.4
2017-03-04T10:24:31.904Z,29.4
2017-03-04T10:25:33.503Z,29.4
2017-03-04T10:26:33.766Z,29.4
2017-03-04T10:27:32.284Z,29.4
2017-03-04T10:28:33.857Z,29.4
2017-03-04T10:29:33.789Z,29.5
2017-03-04T10:30:32.357Z,29.5
2017-03-04T10:31:32.452Z,29.5
2017-03-04T10:32:33.996Z,29.5
2017-03-04T10:33:32.688Z,29.5
2017-03-04T10:34:32.559Z,29.5
2017-03-04T10:35:32.488Z,29.5
2017-03-04T10:36:34.227Z,29.5
2017-03-04T10:37:32.729Z,29.5
2017-03-04T10:38:34.218Z,29.5
2017-03-04T10:39:34.511Z,29.5
2017-03-04T10:40:34.457Z,29.5
2017-03-04T10:41:32.829Z,29.5
2017-03-04T10:42:32.908Z,29.6
2017-03-04T10:43:32.877Z,29.5
2017-03-04T10:44:34.515Z,29.5
2017-03-04T10:45:33.160Z,29.5
2017-03-04T10:46:32.964Z,29.4
2017-03-04T10:47:33.145Z,29.3
2017-03-04T10:48:33.168Z,29.3
2017-03-04T10:49:33.078Z,29.2
2017-03-04T10:50:33.149Z,29.2
2017-03-04T10:51:35.005Z,29.2
2017-03-04T10:52:34.971Z,29.1
2017-03-04T10:53:33.485Z,29.1
2017-03-04T10:54:34.977Z,29
2017-03-04T10:55:35.054Z,29
2017-03-04T10:56:35.139Z,29
2017-03-04T10:57:35.280Z,29
2017-03-04T10:58:35.245Z,28.9
2017-03-04T10:59:35.331Z,28.9
2017-03-04T11:00:33.720Z,28.9
2017-03-04T11:01:33.775Z,28.9
2017-03-04T11:02:34.181Z,28.9
2017-03-04T11:03:34.936Z,28.9
2017-03-04T11:04:34.310Z,28.8
2017-03-04T11:05:34.322Z,28.8
2017-03-04T11:06:34.232Z,28.8
2017-03-04T11:07:34.997Z,28.7
2017-03-04T11:08:35.119Z,28.7
2017-03-04T11:09:36.087Z,28.7
2017-03-04T11:10:34.537Z,28.7
2017-03-04T11:11:36.052Z,28.7
2017-03-04T11:12:35.780Z,28.7
2017-03-04T11:13:34.560Z,28.7
2017-03-04T11:14:36.381Z,28.7
2017-03-04T11:15:36.310Z,28.6
2017-03-04T11:16:34.790Z,28.6
2017-03-04T11:17:36.386Z,28.6
2017-03-04T11:18:36.566Z,28.6
2017-03-04T11:19:34.835Z,28.6
2017-03-04T11:20:36.781Z,28.6
2017-03-04T11:21:36.489Z,28.6
2017-03-04T11:22:34.932Z,28.6
2017-03-04T11:23:34.918Z,28.6
2017-03-04T11:24:35.600Z,28.6
2017-03-04T11:25:35.018Z,28.6
2017-03-04T11:26:36.858Z,28.6
2017-03-04T11:27:35.158Z,28.6
2017-03-04T11:28:36.622Z,28.6
2017-03-04T11:29:36.825Z,28.6
2017-03-04T11:30:35.204Z,28.5
2017-03-04T11:31:36.976Z,28.6
2017-03-04T11:32:37.316Z,28.5
2017-03-04T11:33:35.453Z,28.5
2017-03-04T11:34:37.117Z,28.5
2017-03-04T11:35:37.240Z,28.5
2017-03-04T11:36:35.729Z,28.5
2017-03-04T11:37:37.411Z,28.6
2017-03-04T11:38:37.570Z,28.6
2017-03-04T11:39:35.930Z,28.6
2017-03-04T11:40:36.002Z,28.6
2017-03-04T11:41:35.888Z,28.6
2017-03-04T11:42:35.891Z,28.6
2017-03-04T11:43:37.604Z,28.6
2017-03-04T11:44:36.281Z,28.6
2017-03-04T11:45:36.190Z,28.6
2017-03-04T11:46:36.080Z,28.6
2017-03-04T11:47:36.170Z,28.6
2017-03-04T11:48:36.330Z,28.6
2017-03-04T11:49:37.846Z,28.6
2017-03-04T11:50:38.027Z,28.6
2017-03-04T11:51:37.958Z,28.6
2017-03-04T11:52:36.402Z,28.6
2017-03-04T11:53:38.105Z,28.5
2017-03-04T11:54:36.362Z,28.6
2017-03-04T11:55:36.581Z,28.6
2017-03-04T11:56:38.405Z,28.6
2017-03-04T11:57:36.571Z,28.5
2017-03-04T11:58:36.587Z,28.5
2017-03-04T11:59:38.220Z,28.6
2017-03-04T12:00:38.214Z,28.6
2017-03-04T12:01:38.395Z,28.6
2017-03-04T12:02:36.887Z,28.6
2017-03-04T12:03:38.513Z,28.6
2017-03-04T12:04:36.948Z,28.6
2017-03-04T12:05:36.825Z,28.6
2017-03-04T12:06:36.996Z,28.6
2017-03-04T12:07:37.063Z,28.5
2017-03-04T12:08:37.184Z,28.6
2017-03-04T12:09:38.781Z,28.6
2017-03-04T12:10:38.890Z,28.6
2017-03-04T12:11:38.839Z,28.6
2017-03-04T12:12:38.969Z,28.6
2017-03-04T12:13:39.007Z,28.6
2017-03-04T12:14:37.764Z,28.6
2017-03-04T12:15:38.927Z,28.6
2017-03-04T12:16:38.997Z,28.6
2017-03-04T12:17:37.401Z,28.6
2017-03-04T12:18:39.070Z,28.6
2017-03-04T12:19:37.669Z,28.5
2017-03-04T12:20:39.434Z,28.5
2017-03-04T12:21:37.895Z,28.5
2017-03-04T12:22:39.505Z,28.5
2017-03-04T12:23:38.019Z,28.5
2017-03-04T12:24:37.937Z,28.5
2017-03-04T12:25:38.001Z,28.5
2017-03-04T12:26:38.325Z,28.5
2017-03-04T12:27:38.223Z,28.5
2017-03-04T12:28:38.334Z,28.5
2017-03-04T12:29:39.967Z,28.5
2017-03-04T12:30:38.280Z,28.5
2017-03-04T12:31:39.930Z,28.5
2017-03-04T12:32:38.570Z,28.5
2017-03-04T12:33:38.423Z,28.5
2017-03-04T12:34:38.482Z,28.5
2017-03-04T12:35:40.259Z,28.5
2017-03-04T12:36:38.716Z,28.4
2017-03-04T12:37:40.410Z,28.4
2017-03-04T12:38:39.014Z,28.4
2017-03-04T12:39:38.802Z,28.4
2017-03-04T12:40:40.569Z,28.4
2017-03-04T12:41:40.637Z,28.4
2017-03-04T12:42:38.974Z,28.4
2017-03-04T12:43:40.810Z,28.4
2017-03-04T12:44:39.379Z,28.4
2017-03-04T12:45:41.456Z,28.4
2017-03-04T12:46:41.000Z,28.4
2017-03-04T12:47:41.004Z,28.4
2017-03-04T12:48:40.908Z,28.4
2017-03-04T12:49:39.662Z,28.5
2017-03-04T12:50:41.160Z,28.5
2017-03-04T12:51:41.059Z,28.6
2017-03-04T12:52:41.201Z,28.7
2017-03-04T12:53:41.247Z,28.7
2017-03-04T12:54:41.262Z,28.8
2017-03-04T12:55:41.574Z,28.9
2017-03-04T12:56:39.853Z,29
2017-03-04T12:57:39.769Z,29.1
2017-03-04T12:58:41.471Z,29.2
2017-03-04T12:59:40.042Z,29.3
2017-03-04T13:00:40.173Z,29.4
2017-03-04T13:01:40.303Z,29.5
2017-03-04T13:02:40.145Z,29.6
2017-03-04T13:03:41.814Z,29.7
2017-03-04T13:04:40.273Z,29.8
2017-03-04T13:05:42.101Z,29.9
2017-03-04T13:06:42.036Z,29.9
2017-03-04T13:07:42.097Z,29.9
2017-03-04T13:08:40.474Z,29.9
2017-03-04T13:09:40.641Z,29.9
2017-03-04T13:10:42.181Z,29.8
2017-03-04T13:11:40.657Z,29.8
2017-03-04T13:12:40.770Z,29.8
2017-03-04T13:13:42.437Z,29.8
2017-03-04T13:14:42.489Z,29.8
2017-03-04T13:15:42.530Z,29.8
2017-03-04T13:16:40.999Z,29.8
2017-03-04T13:17:42.791Z,29.7
2017-03-04T13:18:42.758Z,29.6
2017-03-04T13:19:41.182Z,29.6